AKQ weather

Wakefield Municipal Airport
Wakefield, Virginia, United States

Public forecast

Using degrees Fahrenheit for public forecast. Weather courtesy of forecast.io.

METAR (pilot weather report)

Retrieved 2019/07/16 02:54 UTC (20 minutes ago):

KAKQ 160254Z AUTO 00000KT 10SM CLR 24/22 A3007 RMK AO2 SLP182 T02390217 51009

TAF (pilot weather forecast)

Forecast is more than 6 hours old.

Closest forecast is Felker Army Air Field, 20.7 nm (38.4 km) ENE. Retrieved 2019/07/15 18:06 UTC (9 hours ago):

TAF KFAF 151800Z 1518/1624 02006KT 9999 FEW200 QNH3003INS BECMG 1602/1603 13005KT 9999 FEW050 SCT140 QNH3006INS BECMG 1614/1615 20008KT 9999 SCT040 BKN160 QNH3002INS TEMPO 1621/1624 17010G15KT 4800 -TSRA BKN030CB BECMG 1623/1624 16007KT 9999 SCT030 BKN160 QNH3005INS TX33/1519Z TN26/1610Z LAST NO AMDS AFT 1603 NEXT 1610